createdAt,value
2023-04-02T00:00:57.918Z,0
2023-04-02T00:03:57.297Z,0
2023-04-02T00:06:57.215Z,0
2023-04-02T00:09:57.489Z,0
2023-04-02T00:12:57.095Z,0
2023-04-02T00:15:58.222Z,0
2023-04-02T00:18:57.530Z,0
2023-04-02T00:21:57.548Z,0
2023-04-02T00:24:56.931Z,0
2023-04-02T00:27:57.139Z,0
2023-04-02T00:30:57.330Z,0
2023-04-02T00:33:57.169Z,0
2023-04-02T00:36:57.945Z,0
2023-04-02T00:39:57.774Z,0
2023-04-02T00:42:57.024Z,0
2023-04-02T00:45:57.701Z,0
2023-04-02T00:48:56.756Z,0
2023-04-02T00:51:56.775Z,0.3333333333333333
2023-04-02T00:54:56.746Z,0
2023-04-02T00:57:57.198Z,0
2023-04-02T01:00:57.717Z,0
2023-04-02T01:03:56.929Z,0
2023-04-02T01:06:57.444Z,0
2023-04-02T01:09:57.157Z,0
2023-04-02T01:12:57.423Z,0
2023-04-02T01:15:57.996Z,0
2023-04-02T01:18:57.396Z,0
2023-04-02T01:21:56.601Z,0
2023-04-02T01:24:57.328Z,0.3333333333333333
2023-04-02T01:27:57.148Z,0
2023-04-02T01:30:57.396Z,0
2023-04-02T01:33:57.417Z,0
2023-04-02T01:36:57.822Z,0
2023-04-02T01:39:57.797Z,0
2023-04-02T01:42:57.066Z,0
2023-04-02T01:45:56.957Z,0
2023-04-02T01:48:56.825Z,0
2023-04-02T01:51:57.155Z,0
2023-04-02T01:54:57.356Z,0
2023-04-02T01:57:56.870Z,0
2023-04-02T02:00:57.670Z,0
2023-04-02T02:03:56.863Z,0
2023-04-02T02:07:00.101Z,0
2023-04-02T02:09:57.528Z,0
2023-04-02T02:12:56.922Z,0
2023-04-02T02:15:57.480Z,0
2023-04-02T02:18:56.645Z,0
2023-04-02T02:21:57.229Z,0
2023-04-02T02:24:57.356Z,0
2023-04-02T02:27:57.636Z,0
2023-04-02T02:30:57.599Z,0
2023-04-02T02:33:56.929Z,0
2023-04-02T02:36:57.894Z,0
2023-04-02T02:39:56.641Z,0.3333333333333333
2023-04-02T02:42:56.673Z,0
2023-04-02T02:45:57.423Z,0
2023-04-02T02:48:56.973Z,0
2023-04-02T02:51:56.936Z,0.3333333333333333
2023-04-02T02:54:57.684Z,0
2023-04-02T02:57:56.893Z,0
2023-04-02T03:00:57.736Z,0
2023-04-02T03:03:56.947Z,0
2023-04-02T03:06:57.114Z,0
2023-04-02T03:09:56.984Z,0
2023-04-02T03:12:57.902Z,0
2023-04-02T03:15:57.176Z,0
2023-04-02T03:18:57.700Z,0
2023-04-02T03:21:57.108Z,1.3333333333333333
2023-04-02T03:24:57.699Z,0
2023-04-02T03:27:57.617Z,0
2023-04-02T03:30:57.200Z,0
2023-04-02T03:33:57.533Z,0
2023-04-02T03:36:57.212Z,0
2023-04-02T03:39:57.150Z,0.3333333333333333
2023-04-02T03:42:57.388Z,0
2023-04-02T03:45:57.481Z,0
2023-04-02T03:48:57.072Z,0
2023-04-02T03:51:57.162Z,0
2023-04-02T03:54:57.949Z,0
2023-04-02T03:57:57.194Z,0
2023-04-02T04:00:57.886Z,0
2023-04-02T04:03:57.536Z,0.3333333333333333
2023-04-02T04:06:56.994Z,0
2023-04-02T04:09:57.049Z,0
2023-04-02T04:12:57.790Z,0
2023-04-02T04:15:57.904Z,0
2023-04-02T04:18:56.959Z,0
2023-04-02T04:21:57.340Z,0
2023-04-02T04:24:56.973Z,0.3333333333333333
2023-04-02T04:28:00.093Z,0.3333333333333333
2023-04-02T04:30:57.766Z,0
2023-04-02T04:33:57.725Z,0
2023-04-02T04:36:56.790Z,0
2023-04-02T04:39:57.462Z,0.3333333333333333
2023-04-02T04:42:57.023Z,0
2023-04-02T04:45:57.772Z,0.3333333333333333
2023-04-02T04:48:57.392Z,1
2023-04-02T04:51:57.817Z,1
2023-04-02T04:54:57.257Z,1.3333333333333333
2023-04-02T04:57:57.280Z,2
2023-04-02T05:00:57.934Z,4
2023-04-02T05:03:57.444Z,4
2023-04-02T05:06:57.684Z,4.333333333333333
2023-04-02T05:09:57.208Z,6.666666666666667
2023-04-02T05:12:57.187Z,8.666666666666666
2023-04-02T05:15:58.099Z,11
2023-04-02T05:18:57.694Z,13
2023-04-02T05:21:57.015Z,16
2023-04-02T05:24:57.676Z,19.666666666666668
2023-04-02T05:27:57.422Z,23
2023-04-02T05:30:57.841Z,24.666666666666668
2023-04-02T05:33:57.635Z,28.333333333333332
2023-04-02T05:36:56.777Z,29.333333333333332
2023-04-02T05:39:57.369Z,31
2023-04-02T05:42:56.889Z,39.666666666666664
2023-04-02T05:45:57.889Z,53.666666666666664
2023-04-02T05:48:57.499Z,60.666666666666664
2023-04-02T05:51:57.719Z,65.33333333333333
2023-04-02T05:54:57.284Z,75
2023-04-02T05:58:21.129Z,77.66666666666667
2023-04-02T06:00:57.373Z,78
2023-04-02T06:03:57.544Z,78.33333333333333
2023-04-02T06:06:57.351Z,74
2023-04-02T06:09:56.895Z,76
2023-04-02T06:12:57.249Z,71.33333333333333
2023-04-02T06:15:58.004Z,72.66666666666667
2023-04-02T06:18:57.259Z,79.66666666666667
2023-04-02T06:21:58.128Z,82.66666666666667
2023-04-02T06:24:57.055Z,92
2023-04-02T06:27:57.850Z,108.33333333333333
2023-04-02T06:30:57.580Z,123
2023-04-02T06:33:57.059Z,125.33333333333333
2023-04-02T06:36:57.425Z,124
2023-04-02T06:39:57.551Z,137.33333333333334
2023-04-02T06:42:57.879Z,141.66666666666666
2023-04-02T06:45:57.554Z,151.33333333333334
2023-04-02T06:48:57.030Z,154.33333333333334
2023-04-02T06:51:57.401Z,143.66666666666666
2023-04-02T06:54:56.969Z,140.66666666666666
2023-04-02T06:57:57.767Z,121.33333333333333
2023-04-02T07:00:57.677Z,117.66666666666667
2023-04-02T07:03:56.929Z,121.66666666666667
2023-04-02T07:06:57.730Z,134
2023-04-02T07:09:57.702Z,146.66666666666666
2023-04-02T07:12:57.484Z,174
2023-04-02T07:15:57.756Z,219
2023-04-02T07:18:57.115Z,237.33333333333334
2023-04-02T07:21:57.492Z,225.33333333333334
2023-04-02T07:24:57.612Z,220.66666666666666
2023-04-02T07:27:56.789Z,230.33333333333334
2023-04-02T07:30:57.537Z,227
2023-04-02T07:33:58.019Z,249
2023-04-02T07:36:58.022Z,292.3333333333333
2023-04-02T07:39:57.755Z,314
2023-04-02T07:42:57.105Z,279.3333333333333
2023-04-02T07:45:56.867Z,272.6666666666667
2023-04-02T07:48:57.220Z,284.6666666666667
2023-04-02T07:51:57.957Z,293
2023-04-02T07:54:57.196Z,296.3333333333333
2023-04-02T07:57:57.575Z,313
2023-04-02T08:00:58.358Z,316.6666666666667
2023-04-02T08:03:57.159Z,312.6666666666667
2023-04-02T08:06:57.585Z,353.3333333333333
2023-04-02T08:09:58.025Z,347
2023-04-02T08:13:02.621Z,412
2023-04-02T08:15:56.955Z,468
2023-04-02T08:18:56.878Z,538
2023-04-02T08:21:57.002Z,571.3333333333334
2023-04-02T08:24:56.782Z,593.3333333333334
2023-04-02T08:27:57.050Z,588
2023-04-02T08:30:57.272Z,642.3333333333334
2023-04-02T08:33:57.426Z,605.6666666666666
2023-04-02T08:36:57.190Z,612.3333333333334
2023-04-02T08:39:57.492Z,658
2023-04-02T08:42:57.148Z,688.6666666666666
2023-04-02T08:45:57.383Z,688
2023-04-02T08:48:58.085Z,688.3333333333334
2023-04-02T08:51:58.025Z,654.6666666666666
2023-04-02T08:54:57.112Z,625.6666666666666
2023-04-02T08:57:57.658Z,537
2023-04-02T09:00:57.152Z,538
2023-04-02T09:03:57.314Z,451.3333333333333
2023-04-02T09:06:57.182Z,485.3333333333333
2023-04-02T09:09:57.237Z,492.6666666666667
2023-04-02T09:12:57.746Z,509.6666666666667
2023-04-02T09:15:57.440Z,561
2023-04-02T09:18:57.996Z,524.6666666666666
2023-04-02T09:21:57.580Z,617
2023-04-02T09:24:57.671Z,591
2023-04-02T09:27:56.778Z,632.6666666666666
2023-04-02T09:30:57.843Z,594.3333333333334
2023-04-02T09:33:57.858Z,591.6666666666666
2023-04-02T09:36:56.948Z,589.3333333333334
2023-04-02T09:39:57.337Z,577
2023-04-02T09:42:57.356Z,545.3333333333334
2023-04-02T09:45:57.858Z,531
2023-04-02T09:48:57.576Z,580.3333333333334
2023-04-02T09:51:57.430Z,648.3333333333334
2023-04-02T09:54:57.302Z,652.3333333333334
2023-04-02T09:57:56.588Z,559.6666666666666
2023-04-02T10:00:57.502Z,747.6666666666666
2023-04-02T10:03:57.848Z,841.6666666666666
2023-04-02T10:06:57.477Z,676.3333333333334
2023-04-02T10:09:56.918Z,679
2023-04-02T10:12:57.673Z,767.3333333333334
2023-04-02T10:15:57.871Z,660.3333333333334
2023-04-02T10:18:56.943Z,700
2023-04-02T10:21:56.866Z,822
2023-04-02T10:24:56.870Z,933
2023-04-02T10:27:57.518Z,937.6666666666666
2023-04-02T10:30:57.359Z,884.3333333333334
2023-04-02T10:33:57.485Z,916
2023-04-02T10:36:57.266Z,923.6666666666666
2023-04-02T10:39:57.499Z,908
2023-04-02T10:42:57.167Z,806.3333333333334
2023-04-02T10:45:57.019Z,733
2023-04-02T10:48:57.446Z,541
2023-04-02T10:51:57.352Z,393.3333333333333
2023-04-02T10:54:56.941Z,424.3333333333333
2023-04-02T10:57:56.828Z,601.6666666666666
2023-04-02T11:00:57.811Z,572
2023-04-02T11:04:15.209Z,713.6666666666666
2023-04-02T11:07:07.135Z,949
2023-04-02T11:09:58.124Z,944
2023-04-02T11:12:57.373Z,924
2023-04-02T11:15:57.906Z,777
2023-04-02T11:18:57.189Z,688.3333333333334
2023-04-02T11:22:00.274Z,573.3333333333334
2023-04-02T11:24:57.008Z,453.3333333333333
2023-04-02T11:28:17.337Z,333.6666666666667
2023-04-02T11:30:57.826Z,429
2023-04-02T11:33:57.772Z,724.6666666666666
2023-04-02T11:36:57.494Z,904
2023-04-02T11:39:56.859Z,940
2023-04-02T11:42:57.507Z,942
2023-04-02T11:45:58.070Z,945
2023-04-02T11:48:57.625Z,932.3333333333334
2023-04-02T11:52:10.865Z,938.6666666666666
2023-04-02T11:54:56.753Z,877.6666666666666
2023-04-02T11:57:57.152Z,817.6666666666666
2023-04-02T12:00:57.693Z,780.3333333333334
2023-04-02T12:03:57.709Z,794
2023-04-02T12:06:57.061Z,904.3333333333334
2023-04-02T12:09:58.189Z,946.3333333333334
2023-04-02T12:12:57.251Z,951
2023-04-02T12:15:57.069Z,953.3333333333334
2023-04-02T12:18:58.057Z,955
2023-04-02T12:21:56.790Z,958
2023-04-02T12:24:57.023Z,958.6666666666666
2023-04-02T12:27:57.289Z,941.3333333333334
2023-04-02T12:30:57.751Z,570.6666666666666
2023-04-02T12:33:57.169Z,276
2023-04-02T12:36:57.610Z,258
2023-04-02T12:39:57.367Z,278.6666666666667
2023-04-02T12:42:57.772Z,302.3333333333333
2023-04-02T12:45:57.819Z,321.3333333333333
2023-04-02T12:48:57.583Z,285.6666666666667
2023-04-02T12:51:57.827Z,254
2023-04-02T12:54:56.823Z,268.3333333333333
2023-04-02T12:57:57.178Z,295.3333333333333
2023-04-02T13:00:57.650Z,259.6666666666667
2023-04-02T13:03:57.814Z,304.3333333333333
2023-04-02T13:06:57.554Z,320.6666666666667
2023-04-02T13:09:57.455Z,286.6666666666667
2023-04-02T13:12:57.535Z,310
2023-04-02T13:15:56.868Z,295
2023-04-02T13:18:57.179Z,276.3333333333333
2023-04-02T13:21:57.735Z,288
2023-04-02T13:24:57.372Z,313.6666666666667
2023-04-02T13:27:57.858Z,319.6666666666667
2023-04-02T13:30:57.528Z,310.3333333333333
2023-04-02T13:33:57.778Z,261
2023-04-02T13:36:57.911Z,237.66666666666666
2023-04-02T13:39:57.633Z,282
2023-04-02T13:42:56.963Z,292
2023-04-02T13:45:57.978Z,317.6666666666667
2023-04-02T13:48:56.967Z,367.3333333333333
2023-04-02T13:51:57.015Z,361
2023-04-02T13:54:57.968Z,329
2023-04-02T13:57:58.022Z,310.3333333333333
2023-04-02T14:00:58.023Z,305
2023-04-02T14:03:56.926Z,342
2023-04-02T14:06:57.204Z,273.3333333333333
2023-04-02T14:09:57.369Z,243
2023-04-02T14:12:57.524Z,227
2023-04-02T14:15:57.585Z,230.33333333333334
2023-04-02T14:18:56.658Z,246.33333333333334
2023-04-02T14:21:57.514Z,344.6666666666667
2023-04-02T14:24:57.616Z,305.6666666666667
2023-04-02T14:27:57.128Z,253.66666666666666
2023-04-02T14:30:56.956Z,268.3333333333333
2023-04-02T14:33:57.033Z,272.6666666666667
2023-04-02T14:36:57.371Z,278
2023-04-02T14:39:57.866Z,263.3333333333333
2023-04-02T14:42:57.386Z,252.66666666666666
2023-04-02T14:45:58.052Z,215.33333333333334
2023-04-02T14:48:57.244Z,190
2023-04-02T14:51:58.051Z,133
2023-04-02T14:54:57.044Z,112.33333333333333
2023-04-02T14:57:57.305Z,135.33333333333334
2023-04-02T15:00:57.279Z,132
2023-04-02T15:03:58.123Z,136.66666666666666
2023-04-02T15:06:57.393Z,176
2023-04-02T15:09:57.831Z,241
2023-04-02T15:12:57.635Z,273
2023-04-02T15:15:58.232Z,284
2023-04-02T15:18:57.424Z,254
2023-04-02T15:22:01.105Z,203.33333333333334
2023-04-02T15:24:57.719Z,171.33333333333334
2023-04-02T15:27:56.862Z,145.66666666666666
2023-04-02T15:30:56.922Z,113.33333333333333
2023-04-02T15:33:57.022Z,105
2023-04-02T15:36:56.552Z,106.66666666666667
2023-04-02T15:39:57.575Z,118.66666666666667
2023-04-02T15:42:57.369Z,121.33333333333333
2023-04-02T15:45:57.443Z,159.33333333333334
2023-04-02T15:48:58.000Z,185.33333333333334
2023-04-02T15:51:57.410Z,191.33333333333334
2023-04-02T15:54:57.016Z,223.33333333333334
2023-04-02T15:57:57.382Z,230.33333333333334
2023-04-02T16:00:57.544Z,233
2023-04-02T16:03:58.029Z,229
2023-04-02T16:06:56.979Z,207.33333333333334
2023-04-02T16:09:57.298Z,174.33333333333334
2023-04-02T16:12:57.180Z,131.66666666666666
2023-04-02T16:15:57.606Z,118.33333333333333
2023-04-02T16:18:57.644Z,111.66666666666667
2023-04-02T16:21:57.059Z,113.66666666666667
2023-04-02T16:24:57.813Z,117.33333333333333
2023-04-02T16:27:56.890Z,115.66666666666667
2023-04-02T16:30:57.287Z,113.33333333333333
2023-04-02T16:33:57.152Z,95
2023-04-02T16:36:57.391Z,82.66666666666667
2023-04-02T16:39:57.234Z,57
2023-04-02T16:42:57.516Z,43
2023-04-02T16:45:57.657Z,35.333333333333336
2023-04-02T16:48:57.077Z,33
2023-04-02T16:51:57.934Z,31.666666666666668
2023-04-02T16:54:57.294Z,34
2023-04-02T16:57:57.173Z,35
2023-04-02T17:00:57.831Z,35.333333333333336
2023-04-02T17:03:57.041Z,32.333333333333336
2023-04-02T17:06:57.632Z,30.333333333333332
2023-04-02T17:09:57.692Z,31
2023-04-02T17:12:57.245Z,32.666666666666664
2023-04-02T17:15:57.086Z,30
2023-04-02T17:18:57.006Z,28
2023-04-02T17:21:57.505Z,23.666666666666668
2023-04-02T17:24:57.945Z,19.666666666666668
2023-04-02T17:27:57.650Z,16.333333333333332
2023-04-02T17:30:57.025Z,14
2023-04-02T17:33:57.763Z,12
2023-04-02T17:36:58.025Z,9.666666666666666
2023-04-02T17:39:56.971Z,7
2023-04-02T17:42:57.843Z,4.666666666666667
2023-04-02T17:45:57.582Z,2
2023-04-02T17:48:57.111Z,2.3333333333333335
2023-04-02T17:51:57.568Z,1
2023-04-02T17:54:57.097Z,1.3333333333333333
2023-04-02T17:57:57.575Z,0.3333333333333333
2023-04-02T18:00:57.682Z,0.3333333333333333
2023-04-02T18:03:57.075Z,0.3333333333333333
2023-04-02T18:06:57.897Z,1.3333333333333333
2023-04-02T18:09:57.783Z,0
2023-04-02T18:12:57.721Z,0.6666666666666666
2023-04-02T18:15:57.314Z,0.3333333333333333
2023-04-02T18:18:58.154Z,0
2023-04-02T18:21:56.924Z,0
2023-04-02T18:24:57.110Z,0
2023-04-02T18:27:57.802Z,0
2023-04-02T18:31:00.234Z,0
2023-04-02T18:33:57.173Z,0
2023-04-02T18:36:57.076Z,0
2023-04-02T18:39:58.060Z,0
2023-04-02T18:42:57.374Z,0
2023-04-02T18:45:58.135Z,0
2023-04-02T18:48:57.593Z,0
2023-04-02T18:51:57.245Z,0
2023-04-02T18:54:57.859Z,0
2023-04-02T18:57:57.656Z,0
2023-04-02T19:01:25.515Z,0
2023-04-02T19:03:57.227Z,0
2023-04-02T19:06:58.005Z,0
2023-04-02T19:09:57.516Z,0
2023-04-02T19:12:57.061Z,0
2023-04-02T19:15:58.347Z,0
2023-04-02T19:18:57.695Z,0.3333333333333333
2023-04-02T19:21:57.157Z,0
2023-04-02T19:24:57.158Z,0
2023-04-02T19:27:57.236Z,0
2023-04-02T19:30:58.211Z,0
2023-04-02T19:33:57.415Z,0
2023-04-02T19:36:57.211Z,0.3333333333333333
2023-04-02T19:39:57.223Z,0
2023-04-02T19:42:57.391Z,0
2023-04-02T19:45:57.168Z,0
2023-04-02T19:48:57.459Z,1
2023-04-02T19:51:57.722Z,0
2023-04-02T19:54:58.068Z,0
2023-04-02T19:58:04.451Z,0
2023-04-02T20:00:57.963Z,0
2023-04-02T20:03:58.033Z,0
2023-04-02T20:06:57.286Z,0
2023-04-02T20:09:57.505Z,0.3333333333333333
2023-04-02T20:12:57.084Z,0
2023-04-02T20:15:57.919Z,0.6666666666666666
2023-04-02T20:18:57.442Z,0
2023-04-02T20:21:57.542Z,1
2023-04-02T20:24:57.490Z,0
2023-04-02T20:27:57.794Z,0
2023-04-02T20:30:57.650Z,0
2023-04-02T20:33:57.574Z,0
2023-04-02T20:36:58.039Z,0.3333333333333333
2023-04-02T20:39:57.504Z,0
2023-04-02T20:42:58.074Z,0
2023-04-02T20:45:57.191Z,0
2023-04-02T20:48:57.074Z,0
2023-04-02T20:51:57.702Z,0
2023-04-02T20:54:57.334Z,0
2023-04-02T20:57:56.998Z,0
2023-04-02T21:00:57.739Z,0
2023-04-02T21:03:57.175Z,0
2023-04-02T21:06:57.894Z,0
2023-04-02T21:09:57.544Z,1.6666666666666667
2023-04-02T21:12:56.879Z,0.3333333333333333
2023-04-02T21:15:57.205Z,0
2023-04-02T21:18:57.069Z,0
2023-04-02T21:21:57.372Z,0
2023-04-02T21:24:57.451Z,0
2023-04-02T21:27:57.237Z,0
2023-04-02T21:30:58.284Z,0
2023-04-02T21:33:57.646Z,0
2023-04-02T21:36:57.442Z,0
2023-04-02T21:39:57.255Z,0
2023-04-02T21:42:57.419Z,0
2023-04-02T21:45:57.237Z,0
2023-04-02T21:48:57.598Z,0
2023-04-02T21:51:57.441Z,0
2023-04-02T21:54:57.730Z,0
2023-04-02T21:57:57.317Z,0
2023-04-02T22:00:57.514Z,0
2023-04-02T22:03:57.347Z,0
2023-04-02T22:06:56.855Z,0
2023-04-02T22:09:57.161Z,0
2023-04-02T22:12:56.978Z,0
2023-04-02T22:15:57.098Z,0
2023-04-02T22:18:57.314Z,0
2023-04-02T22:21:56.941Z,0
2023-04-02T22:24:57.216Z,0
2023-04-02T22:27:57.861Z,0.3333333333333333
2023-04-02T22:30:57.742Z,0
2023-04-02T22:33:57.543Z,0
2023-04-02T22:36:58.027Z,0.3333333333333333
2023-04-02T22:39:57.565Z,0
2023-04-02T22:42:57.659Z,0
2023-04-02T22:45:57.678Z,0
2023-04-02T22:48:57.580Z,0
2023-04-02T22:51:57.065Z,0.3333333333333333
2023-04-02T22:54:57.545Z,0
2023-04-02T22:57:56.777Z,0
2023-04-02T23:00:57.642Z,0
2023-04-02T23:03:57.586Z,0
2023-04-02T23:06:57.718Z,0
2023-04-02T23:09:57.070Z,0.3333333333333333
2023-04-02T23:12:57.513Z,0.3333333333333333
2023-04-02T23:15:56.727Z,0
2023-04-02T23:18:57.358Z,0
2023-04-02T23:21:57.320Z,0
2023-04-02T23:24:57.835Z,0
2023-04-02T23:27:57.086Z,0
2023-04-02T23:31:15.101Z,0
2023-04-02T23:33:57.358Z,0
2023-04-02T23:36:56.922Z,0
2023-04-02T23:39:57.165Z,0
2023-04-02T23:42:57.677Z,0
2023-04-02T23:45:57.748Z,0.3333333333333333
2023-04-02T23:48:57.124Z,0
2023-04-02T23:51:57.370Z,0
2023-04-02T23:54:57.471Z,0
2023-04-02T23:57:57.665Z,0
